createdAt,value
2024-01-09T00:02:06.810Z,21.50
2024-01-09T00:04:33.873Z,21.60
2024-01-09T00:07:00.879Z,21.50
2024-01-09T00:09:28.300Z,21.50
2024-01-09T00:11:55.261Z,21.50
2024-01-09T00:14:22.316Z,21.50
2024-01-09T00:16:49.437Z,21.40
2024-01-09T00:19:20.160Z,21.50
2024-01-09T00:21:50.944Z,21.40
2024-01-09T00:24:17.889Z,21.40
2024-01-09T00:26:45.298Z,21.40
2024-01-09T00:29:12.324Z,21.40
2024-01-09T00:31:39.408Z,21.50
2024-01-09T00:34:06.432Z,21.40
2024-01-09T00:36:33.429Z,21.50
2024-01-09T00:39:00.519Z,21.50
2024-01-09T00:41:27.459Z,21.50
2024-01-09T00:43:54.674Z,21.40
2024-01-09T00:46:21.720Z,21.40
2024-01-09T00:48:49.285Z,21.40
2024-01-09T00:51:16.323Z,21.50
2024-01-09T00:53:43.369Z,21.60
2024-01-09T00:56:10.371Z,21.80
2024-01-09T00:58:37.331Z,21.60
2024-01-09T01:01:04.576Z,21.50
2024-01-09T01:03:31.516Z,22.00
2024-01-09T01:05:58.537Z,21.50
2024-01-09T01:08:25.499Z,21.50
2024-01-09T01:10:52.559Z,21.50
2024-01-09T01:13:19.489Z,21.50
2024-01-09T01:15:46.386Z,21.50
2024-01-09T01:18:14.454Z,21.50
2024-01-09T01:20:41.452Z,21.50
2024-01-09T01:23:08.450Z,21.60
2024-01-09T01:25:35.483Z,21.60
2024-01-09T01:28:02.441Z,21.60
2024-01-09T01:30:29.976Z,21.60
2024-01-09T01:32:57.107Z,21.70
2024-01-09T01:35:24.195Z,21.60
2024-01-09T01:37:52.640Z,21.50
2024-01-09T01:40:19.872Z,21.40
2024-01-09T01:42:46.810Z,21.50
2024-01-09T01:45:15.048Z,21.50
2024-01-09T01:47:43.659Z,21.50
2024-01-09T01:50:11.126Z,21.60
2024-01-09T01:52:38.770Z,21.50
2024-01-09T01:55:06.513Z,21.60
2024-01-09T01:57:33.436Z,21.50
2024-01-09T02:00:00.502Z,21.50
2024-01-09T02:02:27.940Z,21.50
2024-01-09T02:04:55.214Z,21.50
2024-01-09T02:07:24.622Z,21.50
2024-01-09T02:09:54.873Z,21.40
2024-01-09T02:12:21.770Z,21.40
2024-01-09T02:14:48.748Z,21.30
2024-01-09T02:17:15.733Z,21.30
2024-01-09T02:19:42.706Z,21.30
2024-01-09T02:22:09.735Z,21.20
2024-01-09T02:24:36.680Z,21.10
2024-01-09T02:27:12.110Z,21.10
2024-01-09T02:29:54.044Z,21.10
2024-01-09T02:32:22.332Z,21.20
2024-01-09T02:34:49.783Z,21.20
2024-01-09T02:37:16.766Z,21.30
2024-01-09T02:39:43.728Z,21.30
2024-01-09T02:42:10.778Z,21.30
2024-01-09T02:44:37.798Z,21.30
2024-01-09T02:47:04.794Z,21.30
2024-01-09T02:49:31.785Z,21.20
2024-01-09T02:51:58.735Z,21.20
2024-01-09T02:54:25.659Z,21.20
2024-01-09T02:56:52.763Z,21.10
2024-01-09T02:59:19.944Z,21.10
2024-01-09T03:01:46.924Z,21.20
2024-01-09T03:04:13.833Z,21.10
2024-01-09T03:06:40.997Z,21.10
2024-01-09T03:09:07.995Z,21.20
2024-01-09T03:11:35.045Z,21.10
2024-01-09T03:14:01.974Z,21.10
2024-01-09T03:16:30.889Z,21.10
2024-01-09T03:18:57.924Z,21.10
2024-01-09T03:21:24.920Z,21.10
2024-01-09T03:23:51.875Z,21.10
2024-01-09T03:26:18.877Z,21.10
2024-01-09T03:28:46.200Z,21.10
2024-01-09T03:31:22.739Z,21.10
2024-01-09T03:33:49.923Z,21.10
2024-01-09T03:36:17.352Z,21.10
2024-01-09T03:38:44.726Z,21.10
2024-01-09T03:41:12.135Z,21.20
2024-01-09T03:43:39.150Z,21.20
2024-01-09T03:46:06.092Z,21.10
2024-01-09T03:48:33.346Z,21.10
2024-01-09T03:51:00.322Z,21.20
2024-01-09T03:53:27.226Z,21.20
2024-01-09T03:55:54.139Z,21.10
2024-01-09T03:58:21.285Z,21.20
2024-01-09T04:00:48.316Z,21.20
2024-01-09T04:03:15.354Z,21.20
2024-01-09T04:05:42.560Z,21.30
2024-01-09T04:08:09.644Z,21.30
2024-01-09T04:10:36.578Z,21.20
2024-01-09T04:13:04.079Z,21.10
2024-01-09T04:15:30.944Z,21.20
2024-01-09T04:17:57.941Z,21.10
2024-01-09T04:20:24.933Z,21.10
2024-01-09T04:22:52.100Z,21.10
2024-01-09T04:25:19.046Z,21.10
2024-01-09T04:27:46.122Z,21.10
2024-01-09T04:30:13.172Z,21.10
2024-01-09T04:32:40.238Z,21.10
2024-01-09T04:35:07.362Z,21.00
2024-01-09T04:37:34.606Z,21.10
2024-01-09T04:40:01.600Z,21.10
2024-01-09T04:42:29.326Z,21.10
2024-01-09T04:44:56.419Z,21.20
2024-01-09T04:47:23.746Z,21.20
2024-01-09T04:49:50.842Z,21.70
2024-01-09T04:52:17.724Z,21.20
2024-01-09T04:54:44.683Z,21.20
2024-01-09T04:57:11.703Z,21.10
2024-01-09T04:59:38.729Z,21.20
2024-01-09T05:02:05.718Z,21.10
2024-01-09T05:04:32.650Z,21.20
2024-01-09T05:06:59.563Z,21.10
2024-01-09T05:09:26.446Z,21.20
2024-01-09T05:11:53.373Z,21.20
2024-01-09T05:14:20.431Z,21.20
2024-01-09T05:16:47.371Z,21.10
2024-01-09T05:19:14.382Z,21.60
2024-01-09T05:21:41.362Z,21.00
2024-01-09T05:24:08.442Z,21.10
2024-01-09T05:26:35.442Z,21.00
2024-01-09T05:29:03.026Z,21.10
2024-01-09T05:31:29.937Z,21.10
2024-01-09T05:33:56.972Z,21.10
2024-01-09T05:36:24.345Z,21.10
2024-01-09T05:38:52.483Z,21.10
2024-01-09T05:41:23.061Z,21.20
2024-01-09T05:43:50.506Z,21.20
2024-01-09T05:46:17.633Z,21.30
2024-01-09T05:48:45.514Z,21.20
2024-01-09T05:51:12.628Z,21.20
2024-01-09T05:53:39.668Z,21.20
2024-01-09T05:56:09.338Z,21.10
2024-01-09T05:58:36.350Z,21.10
2024-01-09T06:01:03.400Z,21.00
2024-01-09T06:03:30.454Z,21.00
2024-01-09T06:05:58.179Z,21.00
2024-01-09T06:08:25.667Z,21.00
2024-01-09T06:10:52.702Z,21.00
2024-01-09T06:13:19.675Z,21.00
2024-01-09T06:15:46.703Z,21.00
2024-01-09T06:18:13.750Z,21.00
2024-01-09T06:20:40.758Z,21.00
2024-01-09T06:23:07.822Z,21.00
2024-01-09T06:25:34.809Z,21.00
2024-01-09T06:28:01.761Z,21.00
2024-01-09T06:30:29.057Z,21.00
2024-01-09T06:32:56.183Z,21.00
2024-01-09T06:35:23.212Z,21.00
2024-01-09T06:37:50.211Z,21.10
2024-01-09T06:40:21.022Z,21.30
2024-01-09T06:42:48.523Z,21.40
2024-01-09T06:45:15.669Z,21.60
2024-01-09T06:47:43.047Z,21.60
2024-01-09T06:50:21.065Z,21.70
2024-01-09T06:52:57.226Z,21.80
2024-01-09T06:55:24.152Z,21.80
2024-01-09T06:57:51.076Z,21.90
2024-01-09T07:00:19.960Z,21.90
2024-01-09T07:02:47.045Z,21.90
2024-01-09T07:05:14.206Z,21.90
2024-01-09T07:07:48.702Z,21.90
2024-01-09T07:10:17.449Z,21.90
2024-01-09T07:12:44.373Z,21.90
2024-01-09T07:15:15.100Z,21.90
2024-01-09T07:17:42.917Z,22.00
2024-01-09T07:20:10.298Z,22.00
2024-01-09T07:22:37.226Z,22.00
2024-01-09T07:25:04.453Z,22.00
2024-01-09T07:27:31.611Z,22.00
2024-01-09T07:29:58.639Z,21.90
2024-01-09T07:32:26.828Z,21.90
2024-01-09T07:34:56.454Z,22.00
2024-01-09T07:37:26.398Z,22.00
2024-01-09T07:39:53.533Z,22.00
2024-01-09T07:42:20.831Z,22.00
2024-01-09T07:44:47.885Z,21.90
2024-01-09T07:47:14.918Z,21.90
2024-01-09T07:49:42.204Z,21.80
2024-01-09T07:52:10.153Z,21.80
2024-01-09T07:54:37.119Z,21.70
2024-01-09T07:57:04.940Z,21.80
2024-01-09T07:59:34.297Z,21.80
2024-01-09T08:02:02.877Z,21.80
2024-01-09T08:04:30.102Z,21.80
2024-01-09T08:06:57.153Z,21.90
2024-01-09T08:09:24.184Z,22.00
2024-01-09T08:11:51.107Z,22.10
2024-01-09T08:14:18.206Z,22.20
2024-01-09T08:16:45.127Z,22.40
2024-01-09T08:19:12.227Z,22.30
2024-01-09T08:21:42.593Z,22.30
2024-01-09T08:24:09.922Z,22.30
2024-01-09T08:26:36.922Z,22.20
2024-01-09T08:29:04.820Z,22.10
2024-01-09T08:31:31.825Z,22.00
2024-01-09T08:33:58.933Z,22.00
2024-01-09T08:36:25.959Z,22.00
2024-01-09T08:38:52.988Z,21.90
2024-01-09T08:41:22.125Z,21.80
2024-01-09T08:43:49.194Z,21.70
2024-01-09T08:46:16.189Z,21.70
2024-01-09T08:48:43.355Z,21.80
2024-01-09T08:51:14.635Z,21.80
2024-01-09T08:53:44.566Z,21.60
2024-01-09T08:56:11.575Z,21.50
2024-01-09T08:58:38.559Z,21.40
2024-01-09T09:01:05.639Z,21.40
2024-01-09T09:03:32.589Z,21.30
2024-01-09T09:05:59.629Z,21.30
2024-01-09T09:08:27.815Z,21.20
2024-01-09T09:10:54.731Z,21.20
2024-01-09T09:13:21.718Z,21.20
2024-01-09T09:15:48.745Z,21.20
2024-01-09T09:18:15.785Z,21.30
2024-01-09T09:20:42.906Z,21.40
2024-01-09T09:23:09.956Z,21.50
2024-01-09T09:25:36.930Z,21.60
2024-01-09T09:28:04.037Z,21.60
2024-01-09T09:30:31.239Z,21.60
2024-01-09T09:32:59.807Z,21.60
2024-01-09T09:35:26.953Z,21.80
2024-01-09T09:37:54.175Z,21.50
2024-01-09T09:40:21.666Z,21.40
2024-01-09T09:42:51.886Z,21.50
2024-01-09T09:45:18.891Z,21.50
2024-01-09T09:47:46.045Z,21.50
2024-01-09T09:50:13.236Z,21.50
2024-01-09T09:52:42.401Z,21.50
2024-01-09T09:55:09.761Z,21.60
2024-01-09T09:57:36.889Z,21.50
2024-01-09T10:00:09.584Z,21.60
2024-01-09T10:02:42.672Z,21.70
2024-01-09T10:05:13.410Z,21.70
2024-01-09T10:07:40.986Z,21.80
2024-01-09T10:10:08.673Z,21.90
2024-01-09T10:12:35.626Z,21.80
2024-01-09T10:15:10.079Z,21.80
2024-01-09T10:17:37.565Z,21.80
2024-01-09T10:20:05.759Z,21.80
2024-01-09T10:22:36.371Z,21.80
2024-01-09T10:25:07.143Z,21.70
2024-01-09T10:27:36.375Z,21.70
2024-01-09T10:30:04.898Z,21.50
2024-01-09T10:32:35.962Z,21.50
2024-01-09T10:35:06.709Z,21.40
2024-01-09T10:37:34.322Z,21.30
2024-01-09T10:40:01.670Z,21.30
2024-01-09T10:42:31.938Z,21.30
2024-01-09T10:44:59.244Z,21.10
2024-01-09T10:47:28.949Z,20.90
2024-01-09T10:49:56.101Z,20.80
2024-01-09T10:52:25.031Z,20.50
2024-01-09T10:54:52.123Z,20.30
2024-01-09T10:57:19.105Z,20.40
2024-01-09T10:59:46.536Z,20.40
2024-01-09T11:02:22.973Z,20.40
2024-01-09T11:04:50.089Z,20.40
2024-01-09T11:07:18.151Z,20.30
2024-01-09T11:09:48.608Z,20.20
2024-01-09T11:12:29.270Z,20.20
2024-01-09T11:15:16.377Z,20.40
2024-01-09T11:17:45.991Z,20.30
2024-01-09T11:20:15.453Z,20.30
2024-01-09T11:22:42.895Z,20.30
2024-01-09T11:25:21.944Z,20.30
2024-01-09T11:27:51.201Z,20.50
2024-01-09T11:30:19.306Z,20.40
2024-01-09T11:32:47.392Z,20.40
2024-01-09T11:35:18.857Z,20.30
2024-01-09T11:37:47.366Z,20.50
2024-01-09T11:40:15.326Z,21.10
2024-01-09T11:42:45.973Z,20.40
2024-01-09T11:45:13.546Z,20.40
2024-01-09T11:47:40.851Z,20.40
2024-01-09T11:50:09.181Z,20.40
2024-01-09T11:52:37.116Z,20.40
2024-01-09T11:55:08.861Z,20.60
2024-01-09T11:57:36.189Z,20.50
2024-01-09T12:00:07.225Z,20.70
2024-01-09T12:02:35.003Z,20.60
2024-01-09T12:05:04.497Z,20.80
2024-01-09T12:07:39.230Z,20.70
2024-01-09T12:10:16.600Z,20.70
2024-01-09T12:12:53.027Z,20.40
2024-01-09T12:15:20.693Z,20.10
2024-01-09T12:17:56.932Z,19.90
2024-01-09T12:20:24.098Z,19.90
2024-01-09T12:22:51.085Z,19.80
2024-01-09T12:25:18.415Z,19.60
2024-01-09T12:27:45.601Z,19.50
2024-01-09T12:30:14.608Z,19.40
2024-01-09T12:32:41.800Z,19.50
2024-01-09T12:35:08.949Z,19.70
2024-01-09T12:37:35.987Z,19.80
2024-01-09T12:40:03.076Z,19.80
2024-01-09T12:42:31.018Z,19.80
2024-01-09T12:44:58.219Z,19.70
2024-01-09T12:47:27.403Z,19.60
2024-01-09T12:50:02.793Z,19.50
2024-01-09T12:52:32.587Z,19.50
2024-01-09T12:55:04.325Z,19.40
2024-01-09T12:57:32.823Z,19.40
2024-01-09T13:00:00.046Z,19.30
2024-01-09T13:02:27.567Z,19.30
2024-01-09T13:04:54.909Z,19.40
2024-01-09T13:07:21.977Z,20.00
2024-01-09T13:09:49.592Z,19.50
2024-01-09T13:12:17.662Z,19.50
2024-01-09T13:14:45.258Z,19.50
2024-01-09T13:17:12.584Z,19.60
2024-01-09T13:19:39.734Z,19.70
2024-01-09T13:24:37.451Z,19.70
2024-01-09T13:27:05.239Z,19.80
2024-01-09T13:32:03.355Z,20.30
2024-01-09T13:34:30.910Z,20.50
2024-01-09T13:36:58.601Z,20.50
2024-01-09T13:39:29.184Z,20.70
2024-01-09T13:41:56.348Z,21.00
2024-01-09T13:44:23.712Z,20.90
2024-01-09T13:46:52.092Z,21.00
2024-01-09T13:49:19.336Z,20.90
2024-01-09T13:51:52.980Z,20.80
2024-01-09T13:54:26.644Z,20.90
2024-01-09T13:56:54.424Z,20.80
2024-01-09T13:59:23.333Z,20.80
2024-01-09T14:01:51.122Z,20.90
2024-01-09T14:04:19.180Z,20.70
2024-01-09T14:06:47.160Z,20.70
2024-01-09T14:09:14.279Z,20.60
2024-01-09T14:11:41.357Z,20.50
2024-01-09T14:14:08.512Z,20.50
2024-01-09T14:16:35.615Z,20.50
2024-01-09T14:19:04.353Z,20.50
2024-01-09T14:21:34.600Z,20.40
2024-01-09T14:24:01.731Z,20.30
2024-01-09T14:26:29.029Z,20.40
2024-01-09T14:28:56.391Z,20.30
2024-01-09T14:31:24.220Z,20.30
2024-01-09T14:33:51.470Z,20.40
2024-01-09T14:36:18.574Z,20.50
2024-01-09T14:38:45.907Z,20.60
2024-01-09T14:41:13.092Z,20.60
2024-01-09T14:43:42.738Z,20.60
2024-01-09T14:46:16.606Z,20.60
2024-01-09T14:48:43.869Z,20.70
2024-01-09T14:51:11.208Z,20.50
2024-01-09T14:53:38.483Z,20.50
2024-01-09T14:56:06.150Z,20.50
2024-01-09T14:58:33.609Z,20.50
2024-01-09T15:01:00.908Z,20.40
2024-01-09T15:03:28.069Z,20.50
2024-01-09T15:05:55.241Z,20.50
2024-01-09T15:08:22.399Z,20.60
2024-01-09T15:10:49.570Z,20.50
2024-01-09T15:13:16.802Z,20.60
2024-01-09T15:15:43.770Z,20.50
2024-01-09T15:18:10.888Z,20.60
2024-01-09T15:20:37.977Z,20.60
2024-01-09T15:23:05.401Z,20.50
2024-01-09T15:25:32.787Z,20.40
2024-01-09T15:27:59.843Z,20.50
2024-01-09T15:30:26.877Z,20.60
2024-01-09T15:32:53.985Z,20.70
2024-01-09T15:35:21.119Z,20.70
2024-01-09T15:37:48.162Z,20.80
2024-01-09T15:40:15.704Z,20.80
2024-01-09T15:42:43.175Z,20.90
2024-01-09T15:45:13.911Z,21.00
2024-01-09T15:47:42.405Z,21.00
2024-01-09T15:50:10.690Z,21.10
2024-01-09T15:52:37.943Z,21.20
2024-01-09T15:55:07.251Z,21.20
2024-01-09T15:57:34.252Z,21.20
2024-01-09T16:00:03.261Z,21.20
2024-01-09T16:02:31.159Z,21.30
2024-01-09T16:04:58.306Z,21.40
2024-01-09T16:07:25.267Z,21.30
2024-01-09T16:09:55.546Z,21.40
2024-01-09T16:12:22.588Z,21.40
2024-01-09T16:14:49.497Z,21.30
2024-01-09T16:17:20.458Z,21.20
2024-01-09T16:19:47.668Z,21.10
2024-01-09T16:22:14.643Z,21.10
2024-01-09T16:24:43.125Z,21.00
2024-01-09T16:27:13.257Z,21.00
2024-01-09T16:29:40.279Z,21.10
2024-01-09T16:32:07.426Z,21.10
2024-01-09T16:34:34.645Z,21.10
2024-01-09T16:37:01.888Z,21.10
2024-01-09T16:39:29.299Z,21.10
2024-01-09T16:41:57.800Z,21.10
2024-01-09T16:44:24.843Z,21.10
2024-01-09T16:46:51.888Z,21.10
2024-01-09T16:49:18.959Z,21.10
2024-01-09T16:51:46.336Z,21.10
2024-01-09T16:54:13.402Z,21.10
2024-01-09T16:56:41.257Z,21.20
2024-01-09T16:59:08.711Z,21.10
2024-01-09T17:01:36.025Z,21.00
2024-01-09T17:04:04.016Z,21.00
2024-01-09T17:06:31.106Z,21.10
2024-01-09T17:08:58.110Z,21.10
2024-01-09T17:11:25.208Z,21.20
2024-01-09T17:13:53.107Z,21.20
2024-01-09T17:16:21.400Z,21.20
2024-01-09T17:18:48.416Z,21.20
2024-01-09T17:21:15.572Z,21.20
2024-01-09T17:23:42.558Z,21.20
2024-01-09T17:26:10.589Z,21.10
2024-01-09T17:28:37.797Z,21.10
2024-01-09T17:31:08.236Z,21.10
2024-01-09T17:33:36.145Z,21.10
2024-01-09T17:36:03.324Z,21.10
2024-01-09T17:38:31.573Z,21.10
2024-01-09T17:40:58.629Z,21.10
2024-01-09T17:43:25.650Z,21.10
2024-01-09T17:45:57.427Z,21.00
2024-01-09T17:48:27.691Z,21.00
2024-01-09T17:50:54.889Z,21.00
2024-01-09T17:53:22.215Z,21.00
2024-01-09T17:55:49.393Z,21.00
2024-01-09T17:58:16.389Z,21.10
2024-01-09T18:00:43.395Z,21.10
2024-01-09T18:03:10.483Z,21.10
2024-01-09T18:05:39.493Z,21.20
2024-01-09T18:08:07.283Z,21.10
2024-01-09T18:10:34.329Z,21.10
2024-01-09T18:13:01.341Z,21.10
2024-01-09T18:15:28.579Z,21.10
2024-01-09T18:17:56.168Z,21.00
2024-01-09T18:20:23.175Z,21.00
2024-01-09T18:22:53.301Z,21.10
2024-01-09T18:25:20.230Z,21.10
2024-01-09T18:27:47.608Z,21.00
2024-01-09T18:30:14.884Z,20.80
2024-01-09T18:32:42.077Z,20.80
2024-01-09T18:35:09.536Z,20.80
2024-01-09T18:37:36.689Z,20.90
2024-01-09T18:40:06.402Z,21.00
2024-01-09T18:42:33.938Z,21.00
2024-01-09T18:45:01.065Z,21.00
2024-01-09T18:47:28.202Z,20.90
2024-01-09T18:49:55.856Z,20.90
2024-01-09T18:52:22.896Z,21.00
2024-01-09T18:54:50.041Z,21.00
2024-01-09T18:57:17.146Z,21.00
2024-01-09T18:59:44.156Z,21.10
2024-01-09T19:02:11.537Z,21.20
2024-01-09T19:04:39.455Z,21.40
2024-01-09T19:07:06.832Z,21.60
2024-01-09T19:09:35.365Z,21.60
2024-01-09T19:12:02.475Z,21.70
2024-01-09T19:14:32.312Z,21.70
2024-01-09T19:16:59.540Z,21.70
2024-01-09T19:19:26.497Z,21.70
2024-01-09T19:21:54.053Z,21.80
2024-01-09T19:24:21.670Z,21.80
2024-01-09T19:26:49.435Z,21.80
2024-01-09T19:29:20.356Z,21.80
2024-01-09T19:31:48.021Z,21.80
2024-01-09T19:34:15.240Z,21.80
2024-01-09T19:36:46.497Z,21.70
2024-01-09T19:39:13.470Z,21.60
2024-01-09T19:41:40.470Z,21.70
2024-01-09T19:44:07.521Z,21.50
2024-01-09T19:46:37.457Z,21.50
2024-01-09T19:49:04.531Z,21.40
2024-01-09T19:51:35.859Z,21.30
2024-01-09T19:54:02.835Z,21.40
2024-01-09T19:56:33.110Z,21.40
2024-01-09T19:59:00.440Z,21.40
2024-01-09T20:01:27.451Z,21.40
2024-01-09T20:03:54.905Z,21.40
2024-01-09T20:06:22.650Z,21.40
2024-01-09T20:08:49.659Z,21.40
2024-01-09T20:11:23.472Z,21.40
2024-01-09T20:13:53.014Z,21.40
2024-01-09T20:16:21.711Z,21.50
2024-01-09T20:18:49.380Z,22.00
2024-01-09T20:21:16.722Z,21.40
2024-01-09T20:23:43.731Z,21.40
2024-01-09T20:26:27.347Z,21.30
2024-01-09T20:28:54.888Z,21.30
2024-01-09T20:31:22.395Z,21.30
2024-01-09T20:33:50.079Z,21.40
2024-01-09T20:36:17.363Z,21.30
2024-01-09T20:38:44.390Z,21.40
2024-01-09T20:41:11.487Z,21.30
2024-01-09T20:43:38.889Z,21.30
2024-01-09T20:46:06.000Z,21.30
2024-01-09T20:48:32.929Z,21.30
2024-01-09T20:51:00.210Z,21.40
2024-01-09T20:53:27.420Z,21.30
2024-01-09T20:55:54.658Z,21.40
2024-01-09T20:58:21.645Z,21.40
2024-01-09T21:00:49.477Z,21.40
2024-01-09T21:03:16.997Z,21.50
2024-01-09T21:05:44.540Z,21.60
2024-01-09T21:08:11.968Z,21.60
2024-01-09T21:10:39.667Z,21.60
2024-01-09T21:13:07.010Z,21.60
2024-01-09T21:15:34.190Z,21.60
2024-01-09T21:18:04.542Z,21.60
2024-01-09T21:20:33.159Z,21.60
2024-01-09T21:23:01.522Z,21.60
2024-01-09T21:25:29.898Z,21.60
2024-01-09T21:27:56.867Z,21.60
2024-01-09T21:30:23.997Z,21.70
2024-01-09T21:32:51.477Z,21.70
2024-01-09T21:35:19.406Z,21.70
2024-01-09T21:37:47.401Z,21.80
2024-01-09T21:40:17.148Z,21.70
2024-01-09T21:42:44.344Z,21.70
2024-01-09T21:45:11.626Z,21.70
2024-01-09T21:47:41.645Z,21.70
2024-01-09T21:50:10.695Z,21.70
2024-01-09T21:52:38.632Z,21.80
2024-01-09T21:55:07.273Z,21.80
2024-01-09T21:57:34.212Z,21.80
2024-01-09T22:00:01.204Z,21.90
2024-01-09T22:02:28.226Z,21.90
2024-01-09T22:04:55.370Z,22.00
2024-01-09T22:07:22.322Z,22.10
2024-01-09T22:09:49.267Z,22.20
2024-01-09T22:12:16.366Z,22.20
2024-01-09T22:14:43.794Z,22.30
2024-01-09T22:17:10.846Z,22.20
2024-01-09T22:19:38.761Z,22.30
2024-01-09T22:22:05.843Z,22.30
2024-01-09T22:24:32.780Z,22.30
2024-01-09T22:26:59.706Z,22.40
2024-01-09T22:29:26.595Z,22.40
2024-01-09T22:31:53.561Z,22.40
2024-01-09T22:34:20.527Z,22.40
2024-01-09T22:36:47.590Z,22.40
2024-01-09T22:39:17.221Z,22.40
2024-01-09T22:41:45.001Z,22.40
2024-01-09T22:44:12.024Z,22.40
2024-01-09T22:46:39.065Z,22.40
2024-01-09T22:49:06.552Z,22.40
2024-01-09T22:51:33.777Z,23.00
2024-01-09T22:54:00.761Z,22.40
2024-01-09T22:56:27.825Z,22.30
2024-01-09T22:58:55.738Z,22.40
2024-01-09T23:01:23.356Z,22.40
2024-01-09T23:03:50.280Z,22.40
2024-01-09T23:06:17.240Z,22.40
2024-01-09T23:08:44.196Z,22.40
2024-01-09T23:11:11.975Z,22.40
2024-01-09T23:13:41.027Z,22.40
2024-01-09T23:16:08.094Z,22.40
2024-01-09T23:18:35.448Z,22.50
2024-01-09T23:21:02.414Z,22.40
2024-01-09T23:23:29.641Z,22.40
2024-01-09T23:25:56.683Z,22.40
2024-01-09T23:28:23.661Z,22.40
2024-01-09T23:30:50.748Z,22.40
2024-01-09T23:33:17.855Z,22.40
2024-01-09T23:35:44.834Z,22.40
2024-01-09T23:38:11.854Z,22.40
2024-01-09T23:40:41.157Z,22.40
2024-01-09T23:43:08.466Z,22.50
2024-01-09T23:45:35.444Z,22.40
2024-01-09T23:48:02.555Z,22.50
2024-01-09T23:50:30.282Z,22.40
2024-01-09T23:52:57.280Z,22.50
2024-01-09T23:55:24.195Z,22.50
2024-01-09T23:57:51.083Z,22.50
